sensor_id;sensor_type;location;lat;lon;timestamp;pressure;altitude;pressure_sealevel;temperature;humidity
6030;BME280;3043;42.682;23.376;2022-11-15T00:01:35;95495.84;;;5.70;100.00
6030;BME280;3043;42.682;23.376;2022-11-15T00:04:03;95495.81;;;5.69;100.00
6030;BME280;3043;42.682;23.376;2022-11-15T00:06:29;95487.28;;;5.73;100.00
6030;BME280;3043;42.682;23.376;2022-11-15T00:08:54;95493.25;;;5.66;100.00
6030;BME280;3043;42.682;23.376;2022-11-15T00:11:20;95495.78;;;5.52;100.00
6030;BME280;3043;42.682;23.376;2022-11-15T00:13:45;95489.75;;;5.41;100.00
6030;BME280;3043;42.682;23.376;2022-11-15T00:16:11;95490.66;;;5.52;100.00
6030;BME280;3043;42.682;23.376;2022-11-15T00:18:37;95488.09;;;5.57;100.00
6030;BME280;3043;42.682;23.376;2022-11-15T00:21:10;95494.94;;;5.57;100.00
6030;BME280;3043;42.682;23.376;2022-11-15T00:23:35;95481.22;;;5.40;100.00
6030;BME280;3043;42.682;23.376;2022-11-15T00:26:01;95483.78;;;5.40;100.00
6030;BME280;3043;42.682;23.376;2022-11-15T00:28:27;95487.16;;;5.32;100.00
6030;BME280;3043;42.682;23.376;2022-11-15T00:30:52;95486.34;;;5.37;100.00
6030;BME280;3043;42.682;23.376;2022-11-15T00:33:18;95475.22;;;5.32;100.00
6030;BME280;3043;42.682;23.376;2022-11-15T00:35:44;95470.09;;;5.38;100.00
6030;BME280;3043;42.682;23.376;2022-11-15T00:38:09;95470.06;;;5.25;100.00
6030;BME280;3043;42.682;23.376;2022-11-15T00:40:35;95463.19;;;5.13;100.00
6030;BME280;3043;42.682;23.376;2022-11-15T00:43:00;95470.03;;;5.13;100.00
6030;BME280;3043;42.682;23.376;2022-11-15T00:45:26;95465.69;;;5.07;100.00
6030;BME280;3043;42.682;23.376;2022-11-15T00:47:52;95464.00;;;5.09;100.00
6030;BME280;3043;42.682;23.376;2022-11-15T00:50:18;95463.91;;;4.82;100.00
6030;BME280;3043;42.682;23.376;2022-11-15T00:52:43;95467.31;;;4.81;100.00
6030;BME280;3043;42.682;23.376;2022-11-15T00:55:16;95469.06;;;4.88;100.00
6030;BME280;3043;42.682;23.376;2022-11-15T00:57:42;95469.06;;;4.91;100.00
6030;BME280;3043;42.682;23.376;2022-11-15T01:00:08;95464.81;;;4.92;100.00
6030;BME280;3043;42.682;23.376;2022-11-15T01:02:34;95460.53;;;4.95;100.00
6030;BME280;3043;42.682;23.376;2022-11-15T01:04:59;95462.22;;;4.84;100.00
6030;BME280;3043;42.682;23.376;2022-11-15T01:07:25;95463.88;;;4.75;100.00
6030;BME280;3043;42.682;23.376;2022-11-15T01:09:50;95463.03;;;4.80;100.00
6030;BME280;3043;42.682;23.376;2022-11-15T01:12:16;95462.22;;;4.87;100.00
6030;BME280;3043;42.682;23.376;2022-11-15T01:14:41;95463.91;;;4.85;100.00
6030;BME280;3043;42.682;23.376;2022-11-15T01:17:07;95458.66;;;4.58;100.00
6030;BME280;3043;42.682;23.376;2022-11-15T01:19:32;95463.78;;;4.58;100.00
6030;BME280;3043;42.682;23.376;2022-11-15T01:21:58;95453.53;;;4.58;100.00
6030;BME280;3043;42.682;23.376;2022-11-15T01:24:23;95458.66;;;4.61;100.00
6030;BME280;3043;42.682;23.376;2022-11-15T01:26:48;95459.50;;;4.60;100.00
6030;BME280;3043;42.682;23.376;2022-11-15T01:29:14;95452.63;;;4.55;100.00
6030;BME280;3043;42.682;23.376;2022-11-15T01:31:39;95457.84;;;4.70;100.00
6030;BME280;3043;42.682;23.376;2022-11-15T01:34:36;95451.84;;;4.63;100.00
6030;BME280;3043;42.682;23.376;2022-11-15T01:37:02;95455.25;;;4.65;100.00
6030;BME280;3043;42.682;23.376;2022-11-15T01:39:27;95457.00;;;4.68;100.00
6030;BME280;3043;42.682;23.376;2022-11-15T01:41:53;95462.13;;;4.69;100.00
6030;BME280;3043;42.682;23.376;2022-11-15T01:44:38;95456.13;;;4.69;100.00
6030;BME280;3043;42.682;23.376;2022-11-15T01:47:15;95451.81;;;4.60;100.00
6030;BME280;3043;42.682;23.376;2022-11-15T01:49:49;95461.91;;;4.33;100.00
6030;BME280;3043;42.682;23.376;2022-11-15T01:52:18;95456.66;;;4.15;100.00
6030;BME280;3043;42.682;23.376;2022-11-15T01:54:45;95455.66;;;3.98;100.00
6030;BME280;3043;42.682;23.376;2022-11-15T01:57:12;95449.69;;;3.96;100.00
6030;BME280;3043;42.682;23.376;2022-11-15T01:59:41;95450.38;;;3.77;100.00
6030;BME280;3043;42.682;23.376;2022-11-15T02:02:08;95448.66;;;3.73;100.00
6030;BME280;3043;42.682;23.376;2022-11-15T02:04:37;95443.50;;;3.68;100.00
6030;BME280;3043;42.682;23.376;2022-11-15T02:07:05;95447.75;;;3.68;100.00
6030;BME280;3043;42.682;23.376;2022-11-15T02:09:31;95453.63;;;3.56;100.00
6030;BME280;3043;42.682;23.376;2022-11-15T02:11:58;95454.31;;;3.42;100.00
6030;BME280;3043;42.682;23.376;2022-11-15T02:14:25;95449.22;;;3.45;100.00
6030;BME280;3043;42.682;23.376;2022-11-15T02:22:47;95446.00;;;3.64;100.00
6030;BME280;3043;42.682;23.376;2022-11-15T02:25:29;95449.47;;;3.69;100.00
6030;BME280;3043;42.682;23.376;2022-11-15T02:39:03;95446.09;;;2.89;100.00
6030;BME280;3043;42.682;23.376;2022-11-15T02:41:46;95439.47;;;3.06;100.00
6030;BME280;3043;42.682;23.376;2022-11-15T02:44:35;95433.06;;;2.70;100.00
6030;BME280;3043;42.682;23.376;2022-11-15T02:47:05;95437.22;;;2.62;100.00
6030;BME280;3043;42.682;23.376;2022-11-15T02:49:40;95440.63;;;2.61;100.00
6030;BME280;3043;42.682;23.376;2022-11-15T02:52:06;95442.94;;;2.43;100.00
6030;BME280;3043;42.682;23.376;2022-11-15T02:54:33;95438.13;;;2.64;100.00
6030;BME280;3043;42.682;23.376;2022-11-15T02:57:05;95440.94;;;2.88;100.00
6030;BME280;3043;42.682;23.376;2022-11-15T03:00:10;95449.41;;;2.81;100.00
6030;BME280;3043;42.682;23.376;2022-11-15T03:05:50;95439.63;;;2.50;100.00
6030;BME280;3043;42.682;23.376;2022-11-15T03:11:10;95434.81;;;2.08;100.00
6030;BME280;3043;42.682;23.376;2022-11-15T03:13:42;95433.84;;;2.02;100.00
6030;BME280;3043;42.682;23.376;2022-11-15T03:16:42;95435.56;;;2.03;100.00
6030;BME280;3043;42.682;23.376;2022-11-15T03:19:13;95433.13;;;2.10;100.00
6030;BME280;3043;42.682;23.376;2022-11-15T03:21:40;95424.53;;;2.05;100.00
6030;BME280;3043;42.682;23.376;2022-11-15T03:24:07;95423.78;;;2.11;100.00
6030;BME280;3043;42.682;23.376;2022-11-15T03:26:36;95420.25;;;2.03;100.00
6030;BME280;3043;42.682;23.376;2022-11-15T03:29:16;95416.06;;;2.06;100.00
6030;BME280;3043;42.682;23.376;2022-11-15T03:31:50;95421.19;;;2.09;100.00
6030;BME280;3043;42.682;23.376;2022-11-15T03:34:25;95414.59;;;2.23;100.00
6030;BME280;3043;42.682;23.376;2022-11-15T03:36:52;95418.03;;;2.27;100.00
6030;BME280;3043;42.682;23.376;2022-11-15T03:39:19;95410.28;;;2.21;100.00
6030;BME280;3043;42.682;23.376;2022-11-15T03:44:58;95403.63;;;2.32;100.00
6030;BME280;3043;42.682;23.376;2022-11-15T03:47:39;95403.22;;;2.02;100.00
6030;BME280;3043;42.682;23.376;2022-11-15T03:50:11;95405.84;;;2.06;100.00
6030;BME280;3043;42.682;23.376;2022-11-15T03:52:39;95405.88;;;2.09;100.00
6030;BME280;3043;42.682;23.376;2022-11-15T03:55:08;95396.94;;;2.40;100.00
6030;BME280;3043;42.682;23.376;2022-11-15T03:57:34;95395.91;;;2.26;100.00
6030;BME280;3043;42.682;23.376;2022-11-15T03:59:59;95405.03;;;2.10;100.00
6030;BME280;3043;42.682;23.376;2022-11-15T04:02:24;95402.47;;;2.09;100.00
6030;BME280;3043;42.682;23.376;2022-11-15T04:04:50;95394.09;;;2.17;100.00
6030;BME280;3043;42.682;23.376;2022-11-15T04:07:15;95396.78;;;2.28;100.00
6030;BME280;3043;42.682;23.376;2022-11-15T04:09:41;95389.94;;;2.27;100.00
6030;BME280;3043;42.682;23.376;2022-11-15T04:12:25;95394.50;;;2.49;100.00
6030;BME280;3043;42.682;23.376;2022-11-15T04:15:07;95384.78;;;2.24;100.00
6030;BME280;3043;42.682;23.376;2022-11-15T04:17:44;95386.41;;;2.16;100.00
6030;BME280;3043;42.682;23.376;2022-11-15T04:20:30;95383.91;;;2.19;100.00
6030;BME280;3043;42.682;23.376;2022-11-15T04:23:21;95386.78;;;2.46;100.00
6030;BME280;3043;42.682;23.376;2022-11-15T04:26:10;95380.38;;;2.78;100.00
6030;BME280;3043;42.682;23.376;2022-11-15T04:28:36;95373.69;;;2.95;100.00
6030;BME280;3043;42.682;23.376;2022-11-15T04:31:21;95378.63;;;2.77;100.00
6030;BME280;3043;42.682;23.376;2022-11-15T04:33:46;95387.75;;;2.55;100.00
6030;BME280;3043;42.682;23.376;2022-11-15T04:36:12;95396.22;;;2.51;100.00
6030;BME280;3043;42.682;23.376;2022-11-15T04:38:56;95395.50;;;2.60;100.00
6030;BME280;3043;42.682;23.376;2022-11-15T04:41:21;95387.94;;;2.69;100.00
6030;BME280;3043;42.682;23.376;2022-11-15T04:43:46;95387.94;;;2.70;100.00
6030;BME280;3043;42.682;23.376;2022-11-15T04:46:12;95389.13;;;3.04;100.00
6030;BME280;3043;42.682;23.376;2022-11-15T04:48:37;95384.25;;;3.25;100.00
6030;BME280;3043;42.682;23.376;2022-11-15T04:51:03;95379.19;;;3.31;100.00
6030;BME280;3043;42.682;23.376;2022-11-15T04:53:28;95382.38;;;3.09;100.00
6030;BME280;3043;42.682;23.376;2022-11-15T04:55:54;95384.16;;;3.13;100.00
6030;BME280;3043;42.682;23.376;2022-11-15T04:58:19;95379.13;;;3.25;100.00
6030;BME280;3043;42.682;23.376;2022-11-15T05:00:45;95377.63;;;3.51;100.00
6030;BME280;3043;42.682;23.376;2022-11-15T05:03:10;95386.03;;;3.33;100.00
6030;BME280;3043;42.682;23.376;2022-11-15T05:05:54;95383.47;;;3.33;100.00
6030;BME280;3043;42.682;23.376;2022-11-15T05:08:20;95380.13;;;3.42;100.00
6030;BME280;3043;42.682;23.376;2022-11-15T05:10:45;95386.97;;;3.43;100.00
6030;BME280;3043;42.682;23.376;2022-11-15T05:13:12;95384.50;;;3.52;100.00
6030;BME280;3043;42.682;23.376;2022-11-15T05:15:37;95382.81;;;3.57;100.00
6030;BME280;3043;42.682;23.376;2022-11-15T05:18:03;95381.31;;;3.83;100.00
6030;BME280;3043;42.682;23.376;2022-11-15T05:20:28;95383.84;;;3.80;100.00
6030;BME280;3043;42.682;23.376;2022-11-15T05:22:54;95379.63;;;3.88;100.00
6030;BME280;3043;42.682;23.376;2022-11-15T05:25:21;95372.81;;;3.87;100.00
6030;BME280;3043;42.682;23.376;2022-11-15T05:27:47;95369.47;;;3.97;100.00
6030;BME280;3043;42.682;23.376;2022-11-15T05:30:12;95368.63;;;4.01;100.00
6030;BME280;3043;42.682;23.376;2022-11-15T05:32:37;95379.75;;;4.03;100.00
6030;BME280;3043;42.682;23.376;2022-11-15T05:35:04;95374.81;;;4.42;100.00
6030;BME280;3043;42.682;23.376;2022-11-15T05:37:30;95367.16;;;4.47;100.00
6030;BME280;3043;42.682;23.376;2022-11-15T05:39:56;95369.78;;;4.60;100.00
6030;BME280;3043;42.682;23.376;2022-11-15T05:42:21;95372.31;;;4.57;100.00
6030;BME280;3043;42.682;23.376;2022-11-15T05:44:48;95369.00;;;4.73;100.00
6030;BME280;3043;42.682;23.376;2022-11-15T05:47:22;95381.78;;;4.70;100.00
6030;BME280;3043;42.682;23.376;2022-11-15T05:49:50;95374.97;;;4.66;100.00
6030;BME280;3043;42.682;23.376;2022-11-15T05:52:20;95375.78;;;4.65;100.00
6030;BME280;3043;42.682;23.376;2022-11-15T05:54:47;95371.47;;;4.52;100.00
6030;BME280;3043;42.682;23.376;2022-11-15T05:57:13;95385.16;;;4.57;100.00
6030;BME280;3043;42.682;23.376;2022-11-15T05:59:39;95378.41;;;4.86;100.00
6030;BME280;3043;42.682;23.376;2022-11-15T06:02:06;95380.09;;;4.69;100.00
6030;BME280;3043;42.682;23.376;2022-11-15T06:04:31;95380.91;;;4.61;100.00
6030;BME280;3043;42.682;23.376;2022-11-15T06:06:58;95388.69;;;4.95;100.00
6030;BME280;3043;42.682;23.376;2022-11-15T06:09:23;95380.22;;;5.08;100.00
6030;BME280;3043;42.682;23.376;2022-11-15T06:11:49;95383.56;;;4.86;100.00
6030;BME280;3043;42.682;23.376;2022-11-15T06:14:14;95385.28;;;4.84;100.00
6030;BME280;3043;42.682;23.376;2022-11-15T06:16:40;95382.72;;;4.89;100.00
6030;BME280;3043;42.682;23.376;2022-11-15T06:19:06;95386.09;;;4.85;100.00
6030;BME280;3043;42.682;23.376;2022-11-15T06:21:32;95386.97;;;4.82;100.00
6030;BME280;3043;42.682;23.376;2022-11-15T06:23:58;95387.88;;;4.92;100.00
6030;BME280;3043;42.682;23.376;2022-11-15T06:26:23;95385.34;;;5.17;100.00
6030;BME280;3043;42.682;23.376;2022-11-15T06:28:49;95382.81;;;5.22;100.00
6030;BME280;3043;42.682;23.376;2022-11-15T06:31:14;95385.41;;;5.41;100.00
6030;BME280;3043;42.682;23.376;2022-11-15T06:33:40;95387.97;;;5.67;100.00
6030;BME280;3043;42.682;23.376;2022-11-15T06:36:08;95395.72;;;5.84;100.00
6030;BME280;3043;42.682;23.376;2022-11-15T06:38:34;95387.97;;;5.79;100.00
6030;BME280;3043;42.682;23.376;2022-11-15T06:41:04;95388.00;;;5.85;100.00
6030;BME280;3043;42.682;23.376;2022-11-15T06:43:30;95385.41;;;5.66;100.00
6030;BME280;3043;42.682;23.376;2022-11-15T06:46:00;95382.84;;;5.75;100.00
6030;BME280;3043;42.682;23.376;2022-11-15T06:48:26;95390.56;;;6.02;100.00
6030;BME280;3043;42.682;23.376;2022-11-15T06:50:53;95392.28;;;5.76;100.00
6030;BME280;3043;42.682;23.376;2022-11-15T06:53:19;95385.41;;;6.05;100.00
6030;BME280;3043;42.682;23.376;2022-11-15T06:55:45;95394.00;;;5.89;100.00
6030;BME280;3043;42.682;23.376;2022-11-15T06:58:10;95398.25;;;5.81;100.00
6030;BME280;3043;42.682;23.376;2022-11-15T07:00:35;95389.72;;;5.95;100.00
6030;BME280;3043;42.682;23.376;2022-11-15T07:03:01;95384.56;;;6.16;100.00
6030;BME280;3043;42.682;23.376;2022-11-15T07:05:27;95390.56;;;6.23;100.00
6030;BME280;3043;42.682;23.376;2022-11-15T07:07:53;95388.84;;;6.13;100.00
6030;BME280;3043;42.682;23.376;2022-11-15T07:10:20;95385.41;;;6.05;100.00
6030;BME280;3043;42.682;23.376;2022-11-15T07:12:47;95387.13;;;6.18;100.00
6030;BME280;3043;42.682;23.376;2022-11-15T07:15:15;95388.81;;;6.25;100.00
6030;BME280;3043;42.682;23.376;2022-11-15T07:17:41;95384.53;;;6.30;100.00
6030;BME280;3043;42.682;23.376;2022-11-15T07:20:06;95379.41;;;6.25;100.00
6030;BME280;3043;42.682;23.376;2022-11-15T07:22:32;95388.81;;;6.22;100.00
6030;BME280;3043;42.682;23.376;2022-11-15T07:24:57;95380.25;;;6.14;100.00
6030;BME280;3043;42.682;23.376;2022-11-15T07:27:24;95370.00;;;6.20;100.00
6030;BME280;3043;42.682;23.376;2022-11-15T07:29:49;95376.88;;;5.97;100.00
6030;BME280;3043;42.682;23.376;2022-11-15T07:32:15;95381.16;;;5.93;100.00
6030;BME280;3043;42.682;23.376;2022-11-15T07:34:41;95383.69;;;6.10;100.00
6030;BME280;3043;42.682;23.376;2022-11-15T07:37:06;95375.13;;;6.05;100.00
6030;BME280;3043;42.682;23.376;2022-11-15T07:39:31;95380.28;;;5.96;100.00
6030;BME280;3043;42.682;23.376;2022-11-15T07:41:57;95381.16;;;5.89;100.00
6030;BME280;3043;42.682;23.376;2022-11-15T07:44:40;95381.16;;;5.92;100.00
6030;BME280;3043;42.682;23.376;2022-11-15T07:47:06;95376.88;;;5.92;100.00
6030;BME280;3043;42.682;23.376;2022-11-15T07:49:31;95380.28;;;6.08;100.00
6030;BME280;3043;42.682;23.376;2022-11-15T07:51:57;95371.75;;;5.91;100.00
6030;BME280;3043;42.682;23.376;2022-11-15T07:54:22;95373.44;;;5.98;100.00
6030;BME280;3043;42.682;23.376;2022-11-15T07:56:47;95373.44;;;5.92;100.00
6030;BME280;3043;42.682;23.376;2022-11-15T07:59:13;95372.56;;;5.99;100.00
6030;BME280;3043;42.682;23.376;2022-11-15T08:01:38;95363.16;;;6.07;100.00
6030;BME280;3043;42.682;23.376;2022-11-15T08:04:04;95377.69;;;6.14;100.00
6030;BME280;3043;42.682;23.376;2022-11-15T08:06:29;95377.66;;;6.35;100.00
6030;BME280;3043;42.682;23.376;2022-11-15T08:08:55;95376.81;;;6.33;100.00
6030;BME280;3043;42.682;23.376;2022-11-15T08:11:20;95379.38;;;6.31;100.00
6030;BME280;3043;42.682;23.376;2022-11-15T08:13:46;95369.91;;;6.50;100.00
6030;BME280;3043;42.682;23.376;2022-11-15T08:16:11;95368.16;;;6.52;100.00
6030;BME280;3043;42.682;23.376;2022-11-15T08:18:37;95368.19;;;6.46;100.00
6030;BME280;3043;42.682;23.376;2022-11-15T08:21:03;95364.81;;;6.41;100.00
6030;BME280;3043;42.682;23.376;2022-11-15T08:23:29;95368.22;;;6.34;100.00
6030;BME280;3043;42.682;23.376;2022-11-15T08:26:04;95366.47;;;6.51;100.00
6030;BME280;3043;42.682;23.376;2022-11-15T08:28:31;95358.72;;;6.58;100.00
6030;BME280;3043;42.682;23.376;2022-11-15T08:30:57;95370.75;;;6.47;100.00
6030;BME280;3043;42.682;23.376;2022-11-15T08:33:22;95368.22;;;6.37;100.00
6030;BME280;3043;42.682;23.376;2022-11-15T08:35:48;95372.47;;;6.54;100.00
6030;BME280;3043;42.682;23.376;2022-11-15T08:38:14;95367.44;;;6.20;100.00
6030;BME280;3043;42.682;23.376;2022-11-15T08:40:40;95359.66;;;6.44;100.00
6030;BME280;3043;42.682;23.376;2022-11-15T08:43:05;95368.16;;;6.55;100.00
6030;BME280;3043;42.682;23.376;2022-11-15T08:45:33;95356.19;;;6.51;100.00
6030;BME280;3043;42.682;23.376;2022-11-15T08:48:01;95351.81;;;6.75;100.00
6030;BME280;3043;42.682;23.376;2022-11-15T08:50:26;95351.59;;;7.13;100.00
6030;BME280;3043;42.682;23.376;2022-11-15T08:52:52;95354.22;;;7.05;100.00
6030;BME280;3043;42.682;23.376;2022-11-15T08:55:17;95357.72;;;6.97;100.00
6030;BME280;3043;42.682;23.376;2022-11-15T08:57:43;95353.38;;;7.03;100.00
6030;BME280;3043;42.682;23.376;2022-11-15T09:00:09;95356.91;;;6.87;100.00
6030;BME280;3043;42.682;23.376;2022-11-15T09:02:38;95350.94;;;6.75;100.00
6030;BME280;3043;42.682;23.376;2022-11-15T09:05:04;95343.25;;;6.69;100.00
6030;BME280;3043;42.682;23.376;2022-11-15T09:07:30;95337.25;;;6.64;100.00
6030;BME280;3043;42.682;23.376;2022-11-15T09:09:57;95329.59;;;6.55;100.00
6030;BME280;3043;42.682;23.376;2022-11-15T09:12:23;95335.56;;;6.63;100.00
6030;BME280;3043;42.682;23.376;2022-11-15T09:14:49;95322.78;;;6.43;100.00
6030;BME280;3043;42.682;23.376;2022-11-15T09:17:14;95310.00;;;6.25;100.00
6030;BME280;3043;42.682;23.376;2022-11-15T09:19:39;95321.88;;;6.52;100.00
6030;BME280;3043;42.682;23.376;2022-11-15T09:22:06;95317.59;;;6.57;100.00
6030;BME280;3043;42.682;23.376;2022-11-15T09:24:32;95317.50;;;6.76;100.00
6030;BME280;3043;42.682;23.376;2022-11-15T09:26:57;95309.81;;;6.70;100.00
6030;BME280;3043;42.682;23.376;2022-11-15T09:29:23;95308.03;;;6.86;100.00
6030;BME280;3043;42.682;23.376;2022-11-15T09:31:48;95302.91;;;6.83;100.00
6030;BME280;3043;42.682;23.376;2022-11-15T09:34:13;95302.66;;;7.20;100.00
6030;BME280;3043;42.682;23.376;2022-11-15T09:36:39;95296.47;;;7.46;100.00
6030;BME280;3043;42.682;23.376;2022-11-15T09:39:04;95288.59;;;7.62;100.00
6030;BME280;3043;42.682;23.376;2022-11-15T09:47:40;95286.94;;;7.55;100.00
6030;BME280;3043;42.682;23.376;2022-11-15T09:50:18;95289.41;;;7.66;100.00
6030;BME280;3043;42.682;23.376;2022-11-15T09:52:48;95289.81;;;8.11;100.00
6030;BME280;3043;42.682;23.376;2022-11-15T09:55:14;95287.25;;;8.11;100.00
6030;BME280;3043;42.682;23.376;2022-11-15T09:58:00;95285.25;;;8.39;100.00
6030;BME280;3043;42.682;23.376;2022-11-15T10:00:38;95273.34;;;8.29;100.00
6030;BME280;3043;42.682;23.376;2022-11-15T10:03:15;95278.44;;;8.33;100.00
6030;BME280;3043;42.682;23.376;2022-11-15T10:05:49;95270.63;;;8.39;100.00
6030;BME280;3043;42.682;23.376;2022-11-15T10:11:15;95263.59;;;8.53;100.00
6030;BME280;3043;42.682;23.376;2022-11-15T10:13:44;95258.34;;;8.59;100.00
6030;BME280;3043;42.682;23.376;2022-11-15T10:16:39;95259.41;;;9.05;100.00
6030;BME280;3043;42.682;23.376;2022-11-15T10:24:50;95259.78;;;9.88;100.00
6030;BME280;3043;42.682;23.376;2022-11-15T10:27:18;95261.81;;;9.71;100.00
6030;BME280;3043;42.682;23.376;2022-11-15T10:29:48;95258.69;;;9.54;100.00
6030;BME280;3043;42.682;23.376;2022-11-15T10:32:19;95251.69;;;9.59;100.00
6030;BME280;3043;42.682;23.376;2022-11-15T10:34:44;95241.19;;;9.68;100.00
6030;BME280;3043;42.682;23.376;2022-11-15T10:37:10;95235.56;;;9.95;100.00
6030;BME280;3043;42.682;23.376;2022-11-15T10:39:36;95226.34;;;10.26;100.00
6030;BME280;3043;42.682;23.376;2022-11-15T10:42:28;95237.88;;;10.54;100.00
6030;BME280;3043;42.682;23.376;2022-11-15T10:44:54;95229.78;;;10.28;100.00
6030;BME280;3043;42.682;23.376;2022-11-15T10:47:29;95229.47;;;10.43;100.00
6030;BME280;3043;42.682;23.376;2022-11-15T10:50:25;95226.56;;;10.15;100.00
6030;BME280;3043;42.682;23.376;2022-11-15T10:52:46;95219.09;;;9.99;100.00
6030;BME280;3043;42.682;23.376;2022-11-15T10:57:49;95212.00;;;9.63;100.00
6030;BME280;3043;42.682;23.376;2022-11-15T11:03:01;95197.34;;;9.63;100.00
6030;BME280;3043;42.682;23.376;2022-11-15T11:08:05;95172.47;;;9.58;100.00
6030;BME280;3043;42.682;23.376;2022-11-15T11:10:31;95178.16;;;9.28;100.00
6030;BME280;3043;42.682;23.376;2022-11-15T11:15:40;95173.00;;;9.28;100.00
6030;BME280;3043;42.682;23.376;2022-11-15T11:18:20;95166.09;;;9.30;100.00
6030;BME280;3043;42.682;23.376;2022-11-15T11:21:07;95169.06;;;9.56;100.00
6030;BME280;3043;42.682;23.376;2022-11-15T11:23:53;95162.78;;;9.70;100.00
6030;BME280;3043;42.682;23.376;2022-11-15T11:26:42;95157.25;;;9.88;100.00
6030;BME280;3043;42.682;23.376;2022-11-15T11:29:38;95162.06;;;10.08;100.00
6030;BME280;3043;42.682;23.376;2022-11-15T11:35:02;95136.50;;;10.34;100.00
6030;BME280;3043;42.682;23.376;2022-11-15T11:37:50;95134.19;;;10.22;100.00
6030;BME280;3043;42.682;23.376;2022-11-15T11:40:32;95133.63;;;10.05;100.00
6030;BME280;3043;42.682;23.376;2022-11-15T11:51:15;95108.25;;;10.25;100.00
6030;BME280;3043;42.682;23.376;2022-11-15T11:56:36;95105.25;;;10.81;100.00
6030;BME280;3043;42.682;23.376;2022-11-15T11:59:28;95110.66;;;11.07;100.00
6030;BME280;3043;42.682;23.376;2022-11-15T12:01:57;95103.06;;;11.33;100.00
6030;BME280;3043;42.682;23.376;2022-11-15T12:07:03;95096.41;;;11.23;100.00
6030;BME280;3043;42.682;23.376;2022-11-15T12:09:59;95089.63;;;11.19;100.00
6030;BME280;3043;42.682;23.376;2022-11-15T12:17:33;95071.56;;;11.16;100.00
6030;BME280;3043;42.682;23.376;2022-11-15T12:20:05;95079.41;;;11.13;100.00
6030;BME280;3043;42.682;23.376;2022-11-15T12:27:35;95062.13;;;11.12;100.00
6030;BME280;3043;42.682;23.376;2022-11-15T12:30:15;95064.19;;;11.01;100.00
6030;BME280;3043;42.682;23.376;2022-11-15T12:32:55;95055.66;;;10.96;100.00
6030;BME280;3043;42.682;23.376;2022-11-15T12:37:59;95040.63;;;11.10;100.00
6030;BME280;3043;42.682;23.376;2022-11-15T12:40:27;95048.72;;;10.98;100.00
6030;BME280;3043;42.682;23.376;2022-11-15T12:43:34;95044.66;;;10.87;100.00
6030;BME280;3043;42.682;23.376;2022-11-15T12:45:52;95034.34;;;10.85;100.00
6030;BME280;3043;42.682;23.376;2022-11-15T12:58:56;95029.03;;;11.23;100.00
6030;BME280;3043;42.682;23.376;2022-11-15T13:06:47;95024.44;;;11.34;100.00
6030;BME280;3043;42.682;23.376;2022-11-15T13:11:58;95019.00;;;11.11;100.00
6030;BME280;3043;42.682;23.376;2022-11-15T13:17:09;95015.69;;;11.06;100.00
6030;BME280;3043;42.682;23.376;2022-11-15T13:19:38;95002.47;;;11.15;100.00
6030;BME280;3043;42.682;23.376;2022-11-15T13:22:09;95004.69;;;11.30;100.00
6030;BME280;3043;42.682;23.376;2022-11-15T13:24:54;95001.03;;;11.05;100.00
6030;BME280;3043;42.682;23.376;2022-11-15T13:27:20;95005.06;;;11.15;100.00
6030;BME280;3043;42.682;23.376;2022-11-15T13:29:45;95000.50;;;11.25;100.00
6030;BME280;3043;42.682;23.376;2022-11-15T13:32:13;94999.38;;;11.03;100.00
6030;BME280;3043;42.682;23.376;2022-11-15T13:34:43;94996.75;;;11.04;100.00
6030;BME280;3043;42.682;23.376;2022-11-15T13:39:50;94990.56;;;10.76;100.00
6030;BME280;3043;42.682;23.376;2022-11-15T13:42:17;94989.94;;;10.66;100.00
6030;BME280;3043;42.682;23.376;2022-11-15T13:45:00;94992.09;;;10.51;100.00
6030;BME280;3043;42.682;23.376;2022-11-15T13:47:27;94988.72;;;10.47;100.00
6030;BME280;3043;42.682;23.376;2022-11-15T13:49:56;94984.84;;;10.63;100.00
6030;BME280;3043;42.682;23.376;2022-11-15T13:52:24;94983.88;;;10.69;100.00
6030;BME280;3043;42.682;23.376;2022-11-15T13:55:10;94981.88;;;10.45;100.00
6030;BME280;3043;42.682;23.376;2022-11-15T14:02:54;94971.38;;;10.51;100.00
6030;BME280;3043;42.682;23.376;2022-11-15T14:05:23;94964.75;;;10.39;100.00
6030;BME280;3043;42.682;23.376;2022-11-15T14:10:29;94967.88;;;10.17;100.00
6030;BME280;3043;42.682;23.376;2022-11-15T14:12:56;94970.69;;;10.06;100.00
6030;BME280;3043;42.682;23.376;2022-11-15T14:17:52;94962.53;;;9.86;100.00
6030;BME280;3043;42.682;23.376;2022-11-15T14:20:32;94952.53;;;9.71;100.00
6030;BME280;3043;42.682;23.376;2022-11-15T14:23:05;94952.88;;;9.56;100.00
6030;BME280;3043;42.682;23.376;2022-11-15T14:25:55;94957.03;;;9.62;100.00
6030;BME280;3043;42.682;23.376;2022-11-15T14:30:51;94956.19;;;9.63;100.00
6030;BME280;3043;42.682;23.376;2022-11-15T14:33:20;94950.25;;;9.58;100.00
6030;BME280;3043;42.682;23.376;2022-11-15T14:35:46;94950.25;;;9.58;100.00
6030;BME280;3043;42.682;23.376;2022-11-15T14:38:11;94954.88;;;9.42;100.00
6030;BME280;3043;42.682;23.376;2022-11-15T14:40:37;94943.72;;;9.42;100.00
6030;BME280;3043;42.682;23.376;2022-11-15T14:43:03;94957.25;;;9.53;100.00
6030;BME280;3043;42.682;23.376;2022-11-15T14:45:28;94952.19;;;9.47;100.00
6030;BME280;3043;42.682;23.376;2022-11-15T14:47:53;94946.63;;;9.27;100.00
6030;BME280;3043;42.682;23.376;2022-11-15T14:50:20;94945.91;;;9.19;100.00
6030;BME280;3043;42.682;23.376;2022-11-15T14:52:47;94949.22;;;9.27;100.00
6030;BME280;3043;42.682;23.376;2022-11-15T14:55:25;94949.22;;;9.27;100.00
6030;BME280;3043;42.682;23.376;2022-11-15T14:57:52;94947.63;;;9.18;100.00
6030;BME280;3043;42.682;23.376;2022-11-15T15:00:18;94954.81;;;9.02;100.00
6030;BME280;3043;42.682;23.376;2022-11-15T15:02:45;94941.25;;;8.94;100.00
6030;BME280;3043;42.682;23.376;2022-11-15T15:05:23;94948.03;;;8.98;100.00
6030;BME280;3043;42.682;23.376;2022-11-15T15:07:49;94945.91;;;8.74;100.00
6030;BME280;3043;42.682;23.376;2022-11-15T15:10:16;94948.50;;;8.74;100.00
6030;BME280;3043;42.682;23.376;2022-11-15T15:12:41;94945.88;;;8.77;100.00
6030;BME280;3043;42.682;23.376;2022-11-15T15:15:22;94940.75;;;8.74;100.00
6030;BME280;3043;42.682;23.376;2022-11-15T15:17:49;94932.91;;;8.80;100.00
6030;BME280;3043;42.682;23.376;2022-11-15T15:20:15;94940.69;;;8.77;100.00